PWSweather.com
Personal Weather Stations
Station Observations

ChardChardGB

Lat: 50.877408, Lon: -2.94964741

Elevation: 341

Station Type: WS3083

http://www.merriott-astro.co.uk/weather/index.htm

High Low Average
Temperature 54.0°F12.2°C 42.8°F6.0°C 48.9°F9.4°C
Dew Point 42.4°F5.8°C 38.0°F3.3°C 41.1°F5.1°C
Winds 7.6 mph 12.2 kmh Calm Calm 6.0 mph S9.7 kmh S
Wind Gusts 10.7 mph17.2 kmh -- 7.0 mph11.3 kmh
Humidity 87% 64% 75%
Pressure 29.21 in989.2 mb 28.87 in977.7 mb -
Precipitation 0.01 in0.3 mm - -
Hour Temp Dew Point Humidity Winds Wind Gusts Pressure Precip Precip Rate Daily Precip Total
12:00 AM 45.7°F7.6°C 39.9°F4.4°C 80% 1.2 mph WSW1.9 kmh WSW 4.5 mph7.2 kmh 28.87 in977.7 mb 0.02 in0.5 mm 0.00 in0.0 mm 0.02 in0.5 mm
12:10 AM 46.0°F7.8°C 40.2°F4.6°C 80% 0.8 mph NW1.3 kmh NW 4.5 mph7.2 kmh 28.87 in977.7 mb 0.02 in0.5 mm 0.00 in0.0 mm 0.02 in0.5 mm
12:20 AM 45.9°F7.7°C 40.0°F4.4°C 80% 5.1 mph NW8.2 kmh NW 9.8 mph15.8 kmh 28.88 in978.0 mb 0.02 in0.5 mm 0.00 in0.0 mm 0.02 in0.5 mm
12:30 AM 46.4°F8.0°C 40.6°F4.8°C 80% 5.4 mph NW8.7 kmh NW 7.6 mph12.2 kmh 28.88 in978.0 mb 0.01 in0.3 mm 0.00 in0.0 mm 0.02 in0.5 mm
12:40 AM 46.4°F8.0°C 40.6°F4.8°C 80% 7.5 mph NW12.1 kmh NW 7.6 mph12.2 kmh 28.88 in978.0 mb 0.01 in0.3 mm 0.00 in0.0 mm 0.02 in0.5 mm
12:50 AM 46.4°F8.0°C 40.6°F4.8°C 80% 7.5 mph NW12.1 kmh NW 7.6 mph12.2 kmh 28.88 in978.0 mb 0.00 in0.0 mm 0.00 in0.0 mm 0.02 in0.5 mm
01:00 AM 46.4°F8.0°C 40.6°F4.8°C 80% 7.5 mph NW12.1 kmh NW 7.6 mph12.2 kmh 28.89 in978.3 mb 0.00 in0.0 mm 0.00 in0.0 mm 0.02 in0.5 mm
01:10 AM 46.4°F8.0°C 40.6°F4.8°C 80% 7.5 mph NW12.1 kmh NW 7.6 mph12.2 kmh 28.89 in978.3 mb 0.00 in0.0 mm 0.00 in0.0 mm 0.02 in0.5 mm
01:20 AM 46.4°F8.0°C 40.6°F4.8°C 80% 7.5 mph NW12.1 kmh NW 7.6 mph12.2 kmh 28.89 in978.3 mb 0.00 in0.0 mm 0.00 in0.0 mm 0.02 in0.5 mm
01:30 AM 46.4°F8.0°C 40.6°F4.8°C 80% 7.5 mph NW12.1 kmh NW 7.6 mph12.2 kmh 28.91 in979.0 mb 0.00 in0.0 mm 0.00 in0.0 mm 0.02 in0.5 mm
01:40 AM 46.4°F8.0°C 40.6°F4.8°C 80% 7.5 mph NW12.1 kmh NW 7.6 mph12.2 kmh 28.91 in979.0 mb 0.00 in0.0 mm 0.00 in0.0 mm 0.02 in0.5 mm
01:50 AM 46.4°F8.0°C 40.6°F4.8°C 80% 7.5 mph NW12.1 kmh NW 7.6 mph12.2 kmh 28.91 in979.0 mb 0.00 in0.0 mm 0.00 in0.0 mm 0.02 in0.5 mm
02:00 AM 46.4°F8.0°C 40.6°F4.8°C 80% 7.5 mph NW12.1 kmh NW 7.6 mph12.2 kmh 28.91 in979.0 mb 0.00 in0.0 mm 0.00 in0.0 mm 0.02 in0.5 mm
02:10 AM 46.4°F8.0°C 40.6°F4.8°C 80% 7.5 mph NW12.1 kmh NW 7.6 mph12.2 kmh 28.92 in979.3 mb 0.00 in0.0 mm 0.00 in0.0 mm 0.02 in0.5 mm
02:20 AM 46.4°F8.0°C 40.6°F4.8°C 80% 7.5 mph NW12.1 kmh NW 7.6 mph12.2 kmh 28.91 in979.0 mb 0.00 in0.0 mm 0.00 in0.0 mm 0.02 in0.5 mm
02:30 AM 46.4°F8.0°C 40.6°F4.8°C 80% 7.5 mph NW12.1 kmh NW 7.6 mph12.2 kmh 28.92 in979.3 mb 0.00 in0.0 mm 0.00 in0.0 mm 0.02 in0.5 mm
02:40 AM 46.4°F8.0°C 40.6°F4.8°C 80% 7.5 mph NW12.1 kmh NW 7.6 mph12.2 kmh 28.93 in979.7 mb 0.00 in0.0 mm 0.00 in0.0 mm 0.02 in0.5 mm
02:50 AM 46.4°F8.0°C 40.6°F4.8°C 80% 7.5 mph NW12.1 kmh NW 7.6 mph12.2 kmh 28.92 in979.3 mb 0.00 in0.0 mm 0.00 in0.0 mm 0.02 in0.5 mm
03:00 AM 46.4°F8.0°C 40.6°F4.8°C 80% 7.5 mph NW12.1 kmh NW 7.6 mph12.2 kmh 28.93 in979.7 mb 0.00 in0.0 mm 0.00 in0.0 mm 0.02 in0.5 mm
03:10 AM 46.4°F8.0°C 40.6°F4.8°C 80% 7.5 mph NW12.1 kmh NW 7.6 mph12.2 kmh 28.92 in979.3 mb 0.00 in0.0 mm 0.00 in0.0 mm 0.02 in0.5 mm
03:20 AM 46.4°F8.0°C 40.6°F4.8°C 80% 7.5 mph NW12.1 kmh NW 7.6 mph12.2 kmh 28.93 in979.7 mb 0.00 in0.0 mm 0.00 in0.0 mm 0.02 in0.5 mm
03:30 AM 46.4°F8.0°C 40.6°F4.8°C 80% 7.5 mph NW12.1 kmh NW 7.6 mph12.2 kmh 28.94 in980.0 mb 0.00 in0.0 mm 0.00 in0.0 mm 0.02 in0.5 mm
03:40 AM 46.4°F8.0°C 40.6°F4.8°C 80% 7.5 mph NW12.1 kmh NW 7.6 mph12.2 kmh 28.94 in980.0 mb 0.00 in0.0 mm 0.00 in0.0 mm 0.02 in0.5 mm
03:50 AM 46.4°F8.0°C 40.6°F4.8°C 80% 7.5 mph NW12.1 kmh NW 7.6 mph12.2 kmh 28.94 in980.0 mb 0.00 in0.0 mm 0.00 in0.0 mm 0.02 in0.5 mm
04:00 AM 46.4°F8.0°C 40.6°F4.8°C 80% 7.5 mph NW12.1 kmh NW 7.6 mph12.2 kmh 28.95 in980.4 mb 0.00 in0.0 mm 0.00 in0.0 mm 0.02 in0.5 mm
04:10 AM 46.4°F8.0°C 40.6°F4.8°C 80% 7.5 mph NW12.1 kmh NW 7.6 mph12.2 kmh 28.95 in980.4 mb 0.00 in0.0 mm 0.00 in0.0 mm 0.02 in0.5 mm
04:20 AM 46.4°F8.0°C 40.6°F4.8°C 80% 7.5 mph NW12.1 kmh NW 7.6 mph12.2 kmh 28.96 in980.7 mb 0.00 in0.0 mm 0.00 in0.0 mm 0.02 in0.5 mm
04:30 AM 46.4°F8.0°C 40.6°F4.8°C 80% 7.5 mph NW12.1 kmh NW 7.6 mph12.2 kmh 28.95 in980.4 mb 0.00 in0.0 mm 0.00 in0.0 mm 0.02 in0.5 mm
04:40 AM 46.4°F8.0°C 40.6°F4.8°C 80% 7.5 mph NW12.1 kmh NW 7.6 mph12.2 kmh 28.96 in980.7 mb 0.00 in0.0 mm 0.00 in0.0 mm 0.02 in0.5 mm
04:50 AM 46.4°F8.0°C 40.6°F4.8°C 80% 7.5 mph NW12.1 kmh NW 7.6 mph12.2 kmh 28.97 in981.0 mb 0.00 in0.0 mm 0.00 in0.0 mm 0.02 in0.5 mm
05:00 AM 46.4°F8.0°C 40.6°F4.8°C 80% 7.5 mph NW12.1 kmh NW 7.6 mph12.2 kmh 28.96 in980.7 mb 0.00 in0.0 mm 0.00 in0.0 mm 0.02 in0.5 mm
05:10 AM 46.4°F8.0°C 40.6°F4.8°C 80% 7.5 mph NW12.1 kmh NW 7.6 mph12.2 kmh 28.96 in980.7 mb 0.00 in0.0 mm 0.00 in0.0 mm 0.02 in0.5 mm
05:20 AM 46.4°F8.0°C 40.6°F4.8°C 80% 7.5 mph NW12.1 kmh NW 7.6 mph12.2 kmh 28.97 in981.0 mb 0.00 in0.0 mm 0.00 in0.0 mm 0.02 in0.5 mm
05:30 AM 46.4°F8.0°C 40.6°F4.8°C 80% 7.5 mph NW12.1 kmh NW 7.6 mph12.2 kmh 28.98 in981.4 mb 0.00 in0.0 mm 0.00 in0.0 mm 0.02 in0.5 mm
05:40 AM 46.4°F8.0°C 40.6°F4.8°C 80% 7.5 mph NW12.1 kmh NW 7.6 mph12.2 kmh 28.97 in981.0 mb 0.00 in0.0 mm 0.00 in0.0 mm 0.02 in0.5 mm
05:50 AM 46.4°F8.0°C 40.6°F4.8°C 80% 7.5 mph NW12.1 kmh NW 7.6 mph12.2 kmh 28.98 in981.4 mb 0.00 in0.0 mm 0.00 in0.0 mm 0.02 in0.5 mm
06:00 AM 46.4°F8.0°C 40.6°F4.8°C 80% 7.5 mph NW12.1 kmh NW 7.6 mph12.2 kmh 28.98 in981.4 mb 0.00 in0.0 mm 0.00 in0.0 mm 0.02 in0.5 mm
06:10 AM 46.4°F8.0°C 40.6°F4.8°C 80% 7.5 mph NW12.1 kmh NW 7.6 mph12.2 kmh 28.99 in981.7 mb 0.00 in0.0 mm 0.00 in0.0 mm 0.02 in0.5 mm
06:20 AM 46.4°F8.0°C 40.6°F4.8°C 80% 7.5 mph NW12.1 kmh NW 7.6 mph12.2 kmh 28.99 in981.7 mb 0.00 in0.0 mm 0.00 in0.0 mm 0.02 in0.5 mm
06:30 AM 46.4°F8.0°C 40.6°F4.8°C 80% 7.5 mph NW12.1 kmh NW 7.6 mph12.2 kmh 29.00 in982.1 mb 0.00 in0.0 mm 0.00 in0.0 mm 0.02 in0.5 mm
06:40 AM 46.4°F8.0°C 40.6°F4.8°C 80% 7.5 mph NW12.1 kmh NW 7.6 mph12.2 kmh 29.00 in982.1 mb 0.00 in0.0 mm 0.00 in0.0 mm 0.02 in0.5 mm
06:50 AM 46.4°F8.0°C 40.6°F4.8°C 80% 7.5 mph NW12.1 kmh NW 7.6 mph12.2 kmh 29.00 in982.1 mb 0.00 in0.0 mm 0.00 in0.0 mm 0.02 in0.5 mm
07:00 AM 46.4°F8.0°C 40.6°F4.8°C 80% 7.5 mph NW12.1 kmh NW 7.6 mph12.2 kmh 29.00 in982.1 mb 0.00 in0.0 mm 0.00 in0.0 mm 0.02 in0.5 mm
07:10 AM 46.4°F8.0°C 40.6°F4.8°C 80% 7.5 mph NW12.1 kmh NW 7.6 mph12.2 kmh 29.01 in982.4 mb 0.00 in0.0 mm 0.00 in0.0 mm 0.02 in0.5 mm
07:20 AM 46.4°F8.0°C 40.6°F4.8°C 80% 7.5 mph NW12.1 kmh NW 7.6 mph12.2 kmh 29.01 in982.4 mb 0.00 in0.0 mm 0.00 in0.0 mm 0.02 in0.5 mm
07:30 AM 46.4°F8.0°C 40.6°F4.8°C 80% 7.5 mph NW12.1 kmh NW 7.6 mph12.2 kmh 29.01 in982.4 mb 0.00 in0.0 mm 0.00 in0.0 mm 0.02 in0.5 mm
07:40 AM 46.4°F8.0°C 40.6°F4.8°C 80% 7.5 mph NW12.1 kmh NW 7.6 mph12.2 kmh 29.02 in982.7 mb 0.00 in0.0 mm 0.00 in0.0 mm 0.02 in0.5 mm
07:50 AM 46.4°F8.0°C 40.6°F4.8°C 80% 7.5 mph NW12.1 kmh NW 7.6 mph12.2 kmh 29.02 in982.7 mb 0.00 in0.0 mm 0.00 in0.0 mm 0.02 in0.5 mm
08:00 AM 44.8°F7.1°C 41.2°F5.1°C 87% 3.8 mph SW6.1 kmh SW 3.8 mph6.1 kmh 29.03 in983.1 mb 0.00 in0.0 mm 0.00 in0.0 mm 0.02 in0.5 mm
08:10 AM 44.8°F7.1°C 41.2°F5.1°C 87% 5.8 mph S9.3 kmh S 9.2 mph14.8 kmh 29.04 in983.4 mb 0.00 in0.0 mm 0.00 in0.0 mm 0.02 in0.5 mm
08:20 AM 45.3°F7.4°C 41.7°F5.4°C 87% 3.6 mph SSW5.8 kmh SSW 9.8 mph15.8 kmh 29.04 in983.4 mb 0.00 in0.0 mm 0.00 in0.0 mm 0.02 in0.5 mm
08:30 AM 45.7°F7.6°C 40.5°F4.7°C 82% 2.7 mph SSW4.3 kmh SSW 5.4 mph8.7 kmh 29.04 in983.4 mb 0.00 in0.0 mm 0.00 in0.0 mm 0.02 in0.5 mm
08:40 AM 45.9°F7.7°C 40.7°F4.8°C 82% 5.1 mph SSW8.2 kmh SSW 9.8 mph15.8 kmh 29.04 in983.4 mb 0.00 in0.0 mm 0.00 in0.0 mm 0.02 in0.5 mm
08:50 AM 46.8°F8.2°C 41.6°F5.3°C 82% 5.1 mph S8.2 kmh S 7.6 mph12.2 kmh 29.05 in983.7 mb 0.00 in0.0 mm 0.00 in0.0 mm 0.02 in0.5 mm
09:00 AM 47.7°F8.7°C 42.4°F5.8°C 82% 6.8 mph SSW10.9 kmh SSW 8.3 mph13.4 kmh 29.05 in983.7 mb 0.00 in0.0 mm 0.00 in0.0 mm 0.02 in0.5 mm
09:10 AM 47.5°F8.6°C 42.3°F5.7°C 82% 7.6 mph SSW12.2 kmh SSW 10.7 mph17.2 kmh 29.05 in983.7 mb 0.00 in0.0 mm 0.00 in0.0 mm 0.02 in0.5 mm
09:20 AM 46.8°F8.2°C 41.2°F5.1°C 81% 4.9 mph SSW7.9 kmh SSW 9.2 mph14.8 kmh 29.05 in983.7 mb 0.00 in0.0 mm 0.00 in0.0 mm 0.02 in0.5 mm
09:30 AM 46.8°F8.2°C 41.2°F5.1°C 81% 4.5 mph ESE7.2 kmh ESE 5.4 mph8.7 kmh 29.05 in983.7 mb 0.00 in0.0 mm 0.00 in0.0 mm 0.02 in0.5 mm
09:40 AM 46.8°F8.2°C 41.2°F5.1°C 81% 4.5 mph E7.2 kmh E 5.4 mph8.7 kmh 29.06 in984.1 mb 0.00 in0.0 mm 0.00 in0.0 mm 0.02 in0.5 mm
09:50 AM 46.8°F8.2°C 41.2°F5.1°C 81% 4.5 mph E7.2 kmh E 5.4 mph8.7 kmh 29.06 in984.1 mb 0.00 in0.0 mm 0.00 in0.0 mm 0.02 in0.5 mm
10:00 AM 46.8°F8.2°C 41.2°F5.1°C 81% 4.5 mph E7.2 kmh E 5.4 mph8.7 kmh 29.07 in984.4 mb 0.00 in0.0 mm 0.00 in0.0 mm 0.02 in0.5 mm
10:10 AM 46.8°F8.2°C 41.2°F5.1°C 81% 4.5 mph E7.2 kmh E 5.4 mph8.7 kmh 29.08 in984.8 mb 0.00 in0.0 mm 0.00 in0.0 mm 0.02 in0.5 mm
10:20 AM 46.8°F8.2°C 41.2°F5.1°C 81% 4.5 mph E7.2 kmh E 5.4 mph8.7 kmh 29.08 in984.8 mb 0.00 in0.0 mm 0.00 in0.0 mm 0.02 in0.5 mm
10:30 AM 46.8°F8.2°C 41.2°F5.1°C 81% 4.5 mph E7.2 kmh E 5.4 mph8.7 kmh 29.07 in984.4 mb 0.00 in0.0 mm 0.00 in0.0 mm 0.02 in0.5 mm
10:40 AM 46.8°F8.2°C 41.2°F5.1°C 81% 4.5 mph E7.2 kmh E 5.4 mph8.7 kmh 29.08 in984.8 mb 0.00 in0.0 mm 0.00 in0.0 mm 0.02 in0.5 mm
10:50 AM 46.8°F8.2°C 41.2°F5.1°C 81% 4.5 mph E7.2 kmh E 5.4 mph8.7 kmh 29.08 in984.8 mb 0.00 in0.0 mm 0.00 in0.0 mm 0.02 in0.5 mm
11:00 AM 46.8°F8.2°C 41.2°F5.1°C 81% 4.5 mph E7.2 kmh E 5.4 mph8.7 kmh 29.08 in984.8 mb 0.00 in0.0 mm 0.00 in0.0 mm 0.02 in0.5 mm
11:10 AM 46.8°F8.2°C 41.2°F5.1°C 81% 4.5 mph E7.2 kmh E 5.4 mph8.7 kmh 29.09 in985.1 mb 0.00 in0.0 mm 0.00 in0.0 mm 0.02 in0.5 mm
11:20 AM 46.8°F8.2°C 41.2°F5.1°C 81% 4.5 mph E7.2 kmh E 5.4 mph8.7 kmh 29.08 in984.8 mb 0.00 in0.0 mm 0.00 in0.0 mm 0.02 in0.5 mm
11:30 AM 46.8°F8.2°C 41.2°F5.1°C 81% 4.5 mph E7.2 kmh E 5.4 mph8.7 kmh 29.09 in985.1 mb 0.00 in0.0 mm 0.00 in0.0 mm 0.02 in0.5 mm
11:40 AM 46.8°F8.2°C 41.2°F5.1°C 81% 4.5 mph E7.2 kmh E 5.4 mph8.7 kmh 29.10 in985.4 mb 0.00 in0.0 mm 0.00 in0.0 mm 0.02 in0.5 mm
11:50 AM 46.8°F8.2°C 41.2°F5.1°C 81% 4.5 mph E7.2 kmh E 5.4 mph8.7 kmh 29.09 in985.1 mb 0.00 in0.0 mm 0.00 in0.0 mm 0.02 in0.5 mm
12:00 PM 46.8°F8.2°C 41.2°F5.1°C 81% 4.5 mph E7.2 kmh E 5.4 mph8.7 kmh 29.09 in985.1 mb 0.00 in0.0 mm 0.00 in0.0 mm 0.02 in0.5 mm
12:10 PM 46.8°F8.2°C 41.2°F5.1°C 81% 4.5 mph E7.2 kmh E 5.4 mph8.7 kmh 29.10 in985.4 mb 0.00 in0.0 mm 0.00 in0.0 mm 0.02 in0.5 mm
12:20 PM 46.8°F8.2°C 41.2°F5.1°C 81% 4.5 mph E7.2 kmh E 5.4 mph8.7 kmh 29.11 in985.8 mb 0.00 in0.0 mm 0.00 in0.0 mm 0.02 in0.5 mm
12:30 PM 46.8°F8.2°C 41.2°F5.1°C 81% 4.5 mph E7.2 kmh E 5.4 mph8.7 kmh 29.10 in985.4 mb 0.00 in0.0 mm 0.00 in0.0 mm 0.02 in0.5 mm
12:40 PM 46.8°F8.2°C 41.2°F5.1°C 81% 4.5 mph E7.2 kmh E 5.4 mph8.7 kmh 29.10 in985.4 mb 0.00 in0.0 mm 0.00 in0.0 mm 0.02 in0.5 mm
12:50 PM 46.8°F8.2°C 41.2°F5.1°C 81% 4.5 mph E7.2 kmh E 5.4 mph8.7 kmh 29.11 in985.8 mb 0.00 in0.0 mm 0.00 in0.0 mm 0.02 in0.5 mm
01:00 PM 46.8°F8.2°C 41.2°F5.1°C 81% 4.5 mph E7.2 kmh E 5.4 mph8.7 kmh 29.11 in985.8 mb 0.00 in0.0 mm 0.00 in0.0 mm 0.02 in0.5 mm
01:10 PM 46.8°F8.2°C 41.2°F5.1°C 81% 4.5 mph E7.2 kmh E 5.4 mph8.7 kmh 29.11 in985.8 mb 0.00 in0.0 mm 0.00 in0.0 mm 0.02 in0.5 mm
01:20 PM 46.8°F8.2°C 41.2°F5.1°C 81% 4.5 mph E7.2 kmh E 5.4 mph8.7 kmh 29.10 in985.4 mb 0.00 in0.0 mm 0.00 in0.0 mm 0.02 in0.5 mm
01:30 PM 46.8°F8.2°C 41.2°F5.1°C 81% 4.5 mph E7.2 kmh E 5.4 mph8.7 kmh 29.11 in985.8 mb 0.00 in0.0 mm 0.00 in0.0 mm 0.02 in0.5 mm
01:40 PM 46.8°F8.2°C 41.2°F5.1°C 81% 4.5 mph E7.2 kmh E 5.4 mph8.7 kmh 29.11 in985.8 mb 0.00 in0.0 mm 0.00 in0.0 mm 0.02 in0.5 mm
01:50 PM 46.8°F8.2°C 41.2°F5.1°C 81% 4.5 mph E7.2 kmh E 5.4 mph8.7 kmh 29.11 in985.8 mb 0.00 in0.0 mm 0.00 in0.0 mm 0.02 in0.5 mm
02:00 PM 54.0°F12.2°C 42.1°F5.6°C 64% 7.1 mph SE11.4 kmh SE 7.6 mph12.2 kmh 29.11 in985.8 mb 0.01 in0.3 mm 0.01 in0.3 mm 0.01 in0.3 mm
02:10 PM 54.0°F12.2°C 42.1°F5.6°C 64% 6.9 mph ESE11.1 kmh ESE 6.9 mph11.1 kmh 29.11 in985.8 mb 0.01 in0.3 mm 0.00 in0.0 mm 0.01 in0.3 mm
02:20 PM 54.0°F12.2°C 42.1°F5.6°C 64% 6.9 mph ESE11.1 kmh ESE 6.9 mph11.1 kmh 29.11 in985.8 mb 0.01 in0.3 mm 0.00 in0.0 mm 0.01 in0.3 mm
02:30 PM 54.0°F12.2°C 42.1°F5.6°C 64% 6.9 mph ESE11.1 kmh ESE 6.9 mph11.1 kmh 29.11 in985.8 mb 0.01 in0.3 mm 0.00 in0.0 mm 0.01 in0.3 mm
02:40 PM 54.0°F12.2°C 42.1°F5.6°C 64% 6.9 mph ESE11.1 kmh ESE 6.9 mph11.1 kmh 29.11 in985.8 mb 0.01 in0.3 mm 0.00 in0.0 mm 0.01 in0.3 mm
02:50 PM 54.0°F12.2°C 42.1°F5.6°C 64% 6.9 mph ESE11.1 kmh ESE 6.9 mph11.1 kmh 29.11 in985.8 mb 0.01 in0.3 mm 0.00 in0.0 mm 0.01 in0.3 mm
03:00 PM 54.0°F12.2°C 42.1°F5.6°C 64% 6.9 mph ESE11.1 kmh ESE 6.9 mph11.1 kmh 29.11 in985.8 mb 0.00 in0.0 mm 0.00 in0.0 mm 0.01 in0.3 mm
03:10 PM 54.0°F12.2°C 42.1°F5.6°C 64% 6.9 mph ESE11.1 kmh ESE 6.9 mph11.1 kmh 29.11 in985.8 mb 0.00 in0.0 mm 0.00 in0.0 mm 0.01 in0.3 mm
03:20 PM 54.0°F12.2°C 42.1°F5.6°C 64% 6.9 mph ESE11.1 kmh ESE 6.9 mph11.1 kmh 29.12 in986.1 mb 0.00 in0.0 mm 0.00 in0.0 mm 0.01 in0.3 mm
03:30 PM 54.0°F12.2°C 42.1°F5.6°C 64% 6.9 mph ESE11.1 kmh ESE 6.9 mph11.1 kmh 29.12 in986.1 mb 0.00 in0.0 mm 0.00 in0.0 mm 0.01 in0.3 mm
03:40 PM 54.0°F12.2°C 42.1°F5.6°C 64% 6.9 mph ESE11.1 kmh ESE 6.9 mph11.1 kmh 29.12 in986.1 mb 0.00 in0.0 mm 0.00 in0.0 mm 0.01 in0.3 mm
03:50 PM 54.0°F12.2°C 42.1°F5.6°C 64% 6.9 mph ESE11.1 kmh ESE 6.9 mph11.1 kmh 29.13 in986.5 mb 0.00 in0.0 mm 0.00 in0.0 mm 0.01 in0.3 mm
04:00 PM 54.0°F12.2°C 42.1°F5.6°C 64% 6.9 mph ESE11.1 kmh ESE 6.9 mph11.1 kmh 29.13 in986.5 mb 0.00 in0.0 mm 0.00 in0.0 mm 0.01 in0.3 mm
04:10 PM 54.0°F12.2°C 42.1°F5.6°C 64% 6.9 mph ESE11.1 kmh ESE 6.9 mph11.1 kmh 29.11 in985.8 mb 0.00 in0.0 mm 0.00 in0.0 mm 0.01 in0.3 mm
04:20 PM 54.0°F12.2°C 42.1°F5.6°C 64% 6.9 mph ESE11.1 kmh ESE 6.9 mph11.1 kmh 29.12 in986.1 mb 0.00 in0.0 mm 0.00 in0.0 mm 0.01 in0.3 mm
04:30 PM 54.0°F12.2°C 42.1°F5.6°C 64% 6.9 mph ESE11.1 kmh ESE 6.9 mph11.1 kmh 29.12 in986.1 mb 0.00 in0.0 mm 0.00 in0.0 mm 0.01 in0.3 mm
04:40 PM 54.0°F12.2°C 42.1°F5.6°C 64% 6.9 mph ESE11.1 kmh ESE 6.9 mph11.1 kmh 29.12 in986.1 mb 0.00 in0.0 mm 0.00 in0.0 mm 0.01 in0.3 mm
04:50 PM 54.0°F12.2°C 42.1°F5.6°C 64% 6.9 mph ESE11.1 kmh ESE 6.9 mph11.1 kmh 29.13 in986.5 mb 0.00 in0.0 mm 0.00 in0.0 mm 0.01 in0.3 mm
05:00 PM 54.0°F12.2°C 42.1°F5.6°C 64% 6.9 mph ESE11.1 kmh ESE 6.9 mph11.1 kmh 29.14 in986.8 mb 0.00 in0.0 mm 0.00 in0.0 mm 0.01 in0.3 mm
05:10 PM 54.0°F12.2°C 42.1°F5.6°C 64% 6.9 mph ESE11.1 kmh ESE 6.9 mph11.1 kmh 29.14 in986.8 mb 0.00 in0.0 mm 0.00 in0.0 mm 0.01 in0.3 mm
05:20 PM 54.0°F12.2°C 42.1°F5.6°C 64% 6.9 mph ESE11.1 kmh ESE 6.9 mph11.1 kmh 29.14 in986.8 mb 0.00 in0.0 mm 0.00 in0.0 mm 0.01 in0.3 mm
05:30 PM 54.0°F12.2°C 42.1°F5.6°C 64% 6.9 mph ESE11.1 kmh ESE 6.9 mph11.1 kmh 29.15 in987.1 mb 0.00 in0.0 mm 0.00 in0.0 mm 0.01 in0.3 mm
05:40 PM 54.0°F12.2°C 42.1°F5.6°C 64% 6.9 mph ESE11.1 kmh ESE 6.9 mph11.1 kmh 29.15 in987.1 mb 0.00 in0.0 mm 0.00 in0.0 mm 0.01 in0.3 mm
05:50 PM 54.0°F12.2°C 42.1°F5.6°C 64% 6.9 mph ESE11.1 kmh ESE 6.9 mph11.1 kmh 29.16 in987.5 mb 0.00 in0.0 mm 0.00 in0.0 mm 0.01 in0.3 mm
06:00 PM 54.0°F12.2°C 42.1°F5.6°C 64% 6.9 mph ESE11.1 kmh ESE 6.9 mph11.1 kmh 29.15 in987.1 mb 0.00 in0.0 mm 0.00 in0.0 mm 0.01 in0.3 mm
06:10 PM 54.0°F12.2°C 42.1°F5.6°C 64% 6.9 mph ESE11.1 kmh ESE 6.9 mph11.1 kmh 29.15 in987.1 mb 0.00 in0.0 mm 0.00 in0.0 mm 0.01 in0.3 mm
06:20 PM 54.0°F12.2°C 42.1°F5.6°C 64% 6.9 mph ESE11.1 kmh ESE 6.9 mph11.1 kmh 29.16 in987.5 mb 0.00 in0.0 mm 0.00 in0.0 mm 0.01 in0.3 mm
06:30 PM 54.0°F12.2°C 42.1°F5.6°C 64% 6.9 mph ESE11.1 kmh ESE 6.9 mph11.1 kmh 29.17 in987.8 mb 0.00 in0.0 mm 0.00 in0.0 mm 0.01 in0.3 mm
06:40 PM 54.0°F12.2°C 42.1°F5.6°C 64% 6.9 mph ESE11.1 kmh ESE 6.9 mph11.1 kmh 29.17 in987.8 mb 0.00 in0.0 mm 0.00 in0.0 mm 0.01 in0.3 mm
06:50 PM 54.0°F12.2°C 42.1°F5.6°C 64% 6.9 mph ESE11.1 kmh ESE 6.9 mph11.1 kmh 29.18 in988.1 mb 0.00 in0.0 mm 0.00 in0.0 mm 0.01 in0.3 mm
07:00 PM 54.0°F12.2°C 42.1°F5.6°C 64% 6.9 mph ESE11.1 kmh ESE 6.9 mph11.1 kmh 29.18 in988.1 mb 0.00 in0.0 mm 0.00 in0.0 mm 0.01 in0.3 mm
07:10 PM 54.0°F12.2°C 42.1°F5.6°C 64% 6.9 mph ESE11.1 kmh ESE 6.9 mph11.1 kmh 29.18 in988.1 mb 0.00 in0.0 mm 0.00 in0.0 mm 0.01 in0.3 mm
07:20 PM 54.0°F12.2°C 42.1°F5.6°C 64% 6.9 mph ESE11.1 kmh ESE 6.9 mph11.1 kmh 29.18 in988.1 mb 0.00 in0.0 mm 0.00 in0.0 mm 0.01 in0.3 mm
07:30 PM 54.0°F12.2°C 42.1°F5.6°C 64% 6.9 mph ESE11.1 kmh ESE 6.9 mph11.1 kmh 29.18 in988.1 mb 0.00 in0.0 mm 0.00 in0.0 mm 0.01 in0.3 mm
07:40 PM 54.0°F12.2°C 42.1°F5.6°C 64% 6.9 mph ESE11.1 kmh ESE 6.9 mph11.1 kmh 29.19 in988.5 mb 0.00 in0.0 mm 0.00 in0.0 mm 0.01 in0.3 mm
07:50 PM 54.0°F12.2°C 42.1°F5.6°C 64% 6.9 mph ESE11.1 kmh ESE 6.9 mph11.1 kmh 29.19 in988.5 mb 0.00 in0.0 mm 0.00 in0.0 mm 0.01 in0.3 mm
08:00 PM 54.0°F12.2°C 42.1°F5.6°C 64% 6.9 mph ESE11.1 kmh ESE 6.9 mph11.1 kmh 29.19 in988.5 mb 0.00 in0.0 mm 0.00 in0.0 mm 0.01 in0.3 mm
08:10 PM 54.0°F12.2°C 42.1°F5.6°C 64% 6.9 mph ESE11.1 kmh ESE 6.9 mph11.1 kmh 29.19 in988.5 mb 0.00 in0.0 mm 0.00 in0.0 mm 0.01 in0.3 mm
08:20 PM 54.0°F12.2°C 42.1°F5.6°C 64% 6.9 mph ESE11.1 kmh ESE 6.9 mph11.1 kmh 29.20 in988.8 mb 0.00 in0.0 mm 0.00 in0.0 mm 0.01 in0.3 mm
08:30 PM 54.0°F12.2°C 42.1°F5.6°C 64% 6.9 mph ESE11.1 kmh ESE 6.9 mph11.1 kmh 29.20 in988.8 mb 0.00 in0.0 mm 0.00 in0.0 mm 0.01 in0.3 mm
08:40 PM 54.0°F12.2°C 42.1°F5.6°C 64% 6.9 mph ESE11.1 kmh ESE 6.9 mph11.1 kmh 29.20 in988.8 mb 0.00 in0.0 mm 0.00 in0.0 mm 0.01 in0.3 mm
08:50 PM 54.0°F12.2°C 42.1°F5.6°C 64% 6.9 mph ESE11.1 kmh ESE 6.9 mph11.1 kmh 29.20 in988.8 mb 0.00 in0.0 mm 0.00 in0.0 mm 0.01 in0.3 mm
09:00 PM 54.0°F12.2°C 42.1°F5.6°C 64% 6.9 mph ESE11.1 kmh ESE 6.9 mph11.1 kmh 29.20 in988.8 mb 0.00 in0.0 mm 0.00 in0.0 mm 0.01 in0.3 mm
09:10 PM 54.0°F12.2°C 42.1°F5.6°C 64% 6.9 mph ESE11.1 kmh ESE 6.9 mph11.1 kmh 29.20 in988.8 mb 0.00 in0.0 mm 0.00 in0.0 mm 0.01 in0.3 mm
09:20 PM 54.0°F12.2°C 42.1°F5.6°C 64% 6.9 mph ESE11.1 kmh ESE 6.9 mph11.1 kmh 29.20 in988.8 mb 0.00 in0.0 mm 0.00 in0.0 mm 0.01 in0.3 mm
09:30 PM 54.0°F12.2°C 42.1°F5.6°C 64% 6.9 mph ESE11.1 kmh ESE 6.9 mph11.1 kmh 29.20 in988.8 mb 0.00 in0.0 mm 0.00 in0.0 mm 0.01 in0.3 mm
09:40 PM 54.0°F12.2°C 42.1°F5.6°C 64% 6.9 mph ESE11.1 kmh ESE 6.9 mph11.1 kmh 29.20 in988.8 mb 0.00 in0.0 mm 0.00 in0.0 mm 0.01 in0.3 mm
09:50 PM 54.0°F12.2°C 42.1°F5.6°C 64% 6.9 mph ESE11.1 kmh ESE 6.9 mph11.1 kmh 29.21 in989.2 mb 0.00 in0.0 mm 0.00 in0.0 mm 0.01 in0.3 mm
10:00 PM 54.0°F12.2°C 42.1°F5.6°C 64% 6.9 mph ESE11.1 kmh ESE 6.9 mph11.1 kmh 29.21 in989.2 mb 0.00 in0.0 mm 0.00 in0.0 mm 0.01 in0.3 mm
10:10 PM 54.0°F12.2°C 42.1°F5.6°C 64% 6.9 mph ESE11.1 kmh ESE 6.9 mph11.1 kmh 29.21 in989.2 mb 0.00 in0.0 mm 0.00 in0.0 mm 0.01 in0.3 mm
10:20 PM 54.0°F12.2°C 42.1°F5.6°C 64% 6.9 mph ESE11.1 kmh ESE 6.9 mph11.1 kmh 29.20 in988.8 mb 0.00 in0.0 mm 0.00 in0.0 mm 0.01 in0.3 mm
10:30 PM 42.8°F6.0°C 38.0°F3.3°C 83% Calm Calm -- 29.21 in989.2 mb 0.00 in0.0 mm 0.00 in0.0 mm 0.03 in0.8 mm
10:40 PM 43.0°F6.1°C 38.2°F3.4°C 83% Calm Calm -- 29.21 in989.2 mb 0.00 in0.0 mm 0.00 in0.0 mm 0.03 in0.8 mm
10:50 PM 43.2°F6.2°C 38.4°F3.6°C 83% Calm Calm -- 29.21 in989.2 mb 0.00 in0.0 mm 0.00 in0.0 mm 0.03 in0.8 mm
11:00 PM 43.2°F6.2°C 38.4°F3.6°C 83% Calm Calm -- 29.21 in989.2 mb 0.00 in0.0 mm 0.00 in0.0 mm 0.03 in0.8 mm
11:10 PM 43.2°F6.2°C 38.4°F3.6°C 83% Calm Calm -- 29.21 in989.2 mb 0.00 in0.0 mm 0.00 in0.0 mm 0.03 in0.8 mm
11:20 PM 43.2°F6.2°C 38.4°F3.6°C 83% Calm Calm -- 29.21 in989.2 mb 0.00 in0.0 mm 0.00 in0.0 mm 0.03 in0.8 mm
11:30 PM 43.2°F6.2°C 38.4°F3.6°C 83% Calm Calm -- 29.21 in989.2 mb 0.00 in0.0 mm 0.00 in0.0 mm 0.03 in0.8 mm
11:40 PM 43.3°F6.3°C 38.5°F3.6°C 83% Calm Calm -- 29.21 in989.2 mb 0.00 in0.0 mm 0.00 in0.0 mm 0.03 in0.8 mm
11:50 PM 43.3°F6.3°C 38.8°F3.8°C 84% 1.3 mph NE2.1 kmh NE 4.5 mph7.2 kmh 29.21 in989.2 mb 0.00 in0.0 mm 0.00 in0.0 mm 0.03 in0.8 mm